Time;durP1;ratioP1;P1;durP2;ratioP2;P2;SDS_P1;SDS_P2;PMS_P1;PMS_P2;Temp;Humidity;BMP_temperature;BMP_pressure;BME280_temperature;BME280_humidity;BME280_pressure;Samples;Min_cycle;Max_cycle;Signal;HPM_P1;HPM_P2
2022/01/23 00:01:09;;;;;;;21.63;12.60;;;;;;;-141.50;100.00;63355.56;5012732;28;20477;-81
2022/01/23 00:03:41;;;;;;;27.67;13.48;;;;;;;-141.50;100.00;63355.56;5012715;28;20068;-82
2022/01/23 00:06:08;;;;;;;24.33;12.65;;;;;;;-141.50;100.00;63355.56;5016123;28;20053;-82
2022/01/23 00:08:34;;;;;;;23.73;13.43;;;;;;;-141.50;100.00;63355.56;4995448;28;20088;-82
2022/01/23 00:11:01;;;;;;;25.17;12.88;;;;;;;-141.50;100.00;63355.56;4995604;28;20080;-82
2022/01/23 00:18:59;;;;;;;23.80;12.75;;;;;;;-141.50;100.00;63355.56;5013517;28;20139;-82
2022/01/23 00:21:26;;;;;;;22.02;13.07;;;;;;;-141.50;100.00;63355.56;5013659;28;20079;-81
2022/01/23 00:31:51;;;;;;;18.48;9.10;;;;;;;-141.50;100.00;63355.56;5012977;28;20064;-81
2022/01/23 00:34:19;;;;;;;14.35;8.73;;;;;;;-141.50;100.00;63355.56;5012511;28;20169;-81
2022/01/23 00:36:46;;;;;;;14.90;8.05;;;;;;;-141.50;100.00;63355.56;5013737;28;20462;-82
2022/01/23 00:39:13;;;;;;;11.25;6.63;;;;;;;-141.50;100.00;63355.56;5012452;28;20050;-81
2022/01/23 00:41:39;;;;;;;9.25;6.25;;;;;;;-141.50;100.00;63355.56;4995126;28;20550;-81
2022/01/23 00:44:06;;;;;;;9.00;6.03;;;;;;;-141.50;100.00;63355.56;5011575;28;20139;-82
2022/01/23 00:46:35;;;;;;;9.77;6.28;;;;;;;-141.50;100.00;63355.56;5011120;28;20145;-82
2022/01/23 00:51:37;;;;;;;9.68;5.90;;;;;;;-141.50;100.00;63355.56;5012607;28;20077;-81
2022/01/23 00:54:08;;;;;;;10.45;6.80;;;;;;;-141.50;100.00;63355.56;5011258;28;20058;-81
2022/01/23 00:56:35;;;;;;;10.50;6.38;;;;;;;-141.50;100.00;63355.56;5011171;28;20100;-81
2022/01/23 00:59:03;;;;;;;10.82;7.00;;;;;;;-141.50;100.00;63355.56;4993785;28;20088;-82
2022/01/23 01:01:30;;;;;;;10.15;6.95;;;;;;;-141.50;100.00;63355.56;5011408;28;20322;-82
2022/01/23 01:03:57;;;;;;;13.57;7.65;;;;;;;-141.50;100.00;63355.56;5011090;28;20049;-80
2022/01/23 01:06:24;;;;;;;11.43;7.15;;;;;;;-141.50;100.00;63355.56;4995718;28;20053;-82
2022/01/23 01:08:53;;;;;;;10.43;6.95;;;;;;;-141.50;100.00;63355.56;5012930;28;20072;-82
2022/01/23 01:30:25;;;;;;;16.40;8.18;;;;;;;-141.50;100.00;63355.56;5010607;28;20077;-80
2022/01/23 01:35:33;;;;;;;;;;;;;;;-141.50;100.00;63355.56;5012391;28;20046;-80
2022/01/23 01:37:59;;;;;;;15.48;8.77;;;;;;;-141.50;100.00;63355.56;5009596;28;19945;-80
2022/01/23 01:40:26;;;;;;;15.27;9.00;;;;;;;-141.50;100.00;63355.56;5011134;28;20042;-80
2022/01/23 01:42:53;;;;;;;15.75;8.68;;;;;;;-141.50;100.00;63355.56;5012563;28;20406;-82
2022/01/23 01:45:22;;;;;;;15.30;9.63;;;;;;;-141.50;100.00;63355.56;5014617;28;20096;-82
2022/01/23 01:47:51;;;;;;;18.65;10.60;;;;;;;-141.50;100.00;63355.56;5012239;28;20691;-82
2022/01/23 01:50:18;;;;;;;16.63;10.20;;;;;;;-141.50;100.00;63355.56;5011541;28;20519;-82
2022/01/23 01:52:44;;;;;;;17.20;10.30;;;;;;;-141.50;100.00;63355.56;4994739;28;20616;-81
2022/01/23 01:55:16;;;;;;;18.83;11.00;;;;;;;-141.50;100.00;63355.56;5012294;28;20058;-81
2022/01/23 01:57:52;;;;;;;17.63;11.18;;;;;;;-141.50;100.00;63355.56;5010256;28;20053;-81
2022/01/23 02:00:39;;;;;;;19.75;10.30;;;;;;;-141.50;100.00;63355.56;5011592;28;20172;-83
2022/01/23 02:03:25;;;;;;;18.52;11.27;;;;;;;-141.50;100.00;63355.56;5013842;28;20054;-81
2022/01/23 02:08:38;;;;;;;18.20;8.90;;;;;;;-141.50;100.00;63355.56;5009830;28;20049;-81
2022/01/23 02:11:15;;;;;;;18.73;10.88;;;;;;;-141.50;100.00;63355.56;5012159;28;20056;-82
2022/01/23 02:17:17;;;;;;;18.33;10.02;;;;;;;-141.50;100.00;63355.56;4912304;29;20107;-80
2022/01/23 02:23:11;;;;;;;21.60;11.85;;;;;;;-141.50;100.00;63355.56;5011423;28;20467;-81
2022/01/23 02:55:49;;;;;;;26.95;14.50;;;;;;;-141.50;100.00;63355.56;5015343;28;20046;-81
2022/01/23 02:58:21;;;;;;;27.48;14.93;;;;;;;-141.50;100.00;63355.56;5013926;28;20101;-81
2022/01/23 03:01:08;;;;;;;27.00;14.70;;;;;;;-141.50;100.00;63355.56;4996379;28;20046;-80
2022/01/23 03:03:42;;;;;;;31.40;16.00;;;;;;;-141.50;100.00;63355.56;4995362;28;20087;-81
2022/01/23 03:09:10;;;;;;;30.38;15.07;;;;;;;-141.50;100.00;63355.56;5012145;28;20049;-81
2022/01/23 03:12:02;;;;;;;;;;;;;;;;;;;;;
2022/01/23 03:27:53;;;;;;;31.02;13.90;;;;;;;-141.50;100.00;63355.56;5014711;28;20077;-81
2022/01/23 03:32:47;;;;;;;19.95;11.30;;;;;;;-141.50;100.00;63355.56;5012820;28;20053;-81
2022/01/23 03:35:15;;;;;;;18.45;9.40;;;;;;;-141.50;100.00;63355.56;5014168;28;20077;-80
2022/01/23 03:37:42;;;;;;;18.25;9.95;;;;;;;-141.50;100.00;63355.56;5014560;28;20054;-81
2022/01/23 03:40:09;;;;;;;17.17;8.60;;;;;;;-141.50;100.00;63355.56;4997123;28;20123;-82
2022/01/23 03:42:40;;;;;;;18.02;8.63;;;;;;;-141.50;100.00;63355.56;5013852;28;20080;-82
2022/01/23 03:49:30;;;;;;;16.63;9.10;;;;;;;-141.50;100.00;63355.56;5013333;28;20056;-81
2022/01/23 03:50:41;;;;;;;18.60;10.30;;;;;;;-141.50;100.00;63355.56;5013121;28;20073;-80
2022/01/23 03:53:08;;;;;;;22.85;11.50;;;;;;;-141.50;100.00;63355.56;5013633;28;20054;-81
2022/01/23 03:55:34;;;;;;;23.15;11.38;;;;;;;-141.50;100.00;63355.56;5012384;28;20050;-80
2022/01/23 03:58:01;;;;;;;23.05;11.77;;;;;;;-141.50;100.00;63355.56;4995838;28;20050;-80
2022/01/23 04:00:28;;;;;;;23.08;12.35;;;;;;;-141.50;100.00;63355.56;5011087;28;20454;-80
2022/01/23 04:02:55;;;;;;;28.83;13.35;;;;;;;-141.50;100.00;63355.56;5011533;28;20487;-81
2022/01/23 04:05:22;;;;;;;25.80;12.93;;;;;;;-141.50;100.00;63355.56;5014964;28;20046;-81
2022/01/23 04:07:49;;;;;;;27.80;14.88;;;;;;;-141.50;100.00;63355.56;5012743;28;20127;-81
2022/01/23 04:10:19;;;;;;;30.67;14.65;;;;;;;-141.50;100.00;63355.56;4996786;28;20046;-81
2022/01/23 04:34:29;;;;;;;16.20;8.90;;;;;;;-141.50;100.00;63355.56;5014586;28;20077;-82
2022/01/23 05:04:15;;;;;;;28.48;12.77;;;;;;;-141.50;100.00;63355.56;5015570;28;20081;-81
2022/01/23 05:06:49;;;;;;;24.52;12.27;;;;;;;-141.50;100.00;63355.56;5016150;28;20049;-81
2022/01/23 05:09:16;;;;;;;23.90;12.10;;;;;;;-141.50;100.00;63355.56;4995753;28;20112;-80
2022/01/23 05:11:49;;;;;;;27.35;12.90;;;;;;;-141.50;100.00;63355.56;5003683;28;20134;-80
2022/01/23 05:14:20;;;;;;;27.75;12.77;;;;;;;-141.50;100.00;63355.56;4993649;28;20108;-82
2022/01/23 05:16:47;;;;;;;26.15;13.25;;;;;;;-141.50;100.00;63355.56;4993229;28;20459;-82
2022/01/23 05:19:14;;;;;;;25.05;12.82;;;;;;;-141.50;100.00;63355.56;4995283;28;20470;-83
2022/01/23 05:24:21;;;;;;;31.33;15.60;;;;;;;-141.50;100.00;63355.56;4995671;28;20082;-80
2022/01/23 05:26:47;;;;;;;36.50;16.17;;;;;;;-141.50;100.00;63355.56;4996586;28;20054;-81
2022/01/23 05:29:14;;;;;;;33.20;15.02;;;;;;;-141.50;100.00;63355.56;4994437;28;20054;-81
2022/01/23 05:31:41;;;;;;;31.05;14.68;;;;;;;-141.50;100.00;63355.56;4992592;28;20109;-81
2022/01/23 05:34:08;;;;;;;35.83;15.43;;;;;;;-141.50;100.00;63355.56;4993532;28;20104;-82
2022/01/23 05:36:35;;;;;;;35.13;16.38;;;;;;;-141.50;100.00;63355.56;4994960;28;20054;-81
2022/01/23 05:39:01;;;;;;;36.78;16.58;;;;;;;-141.50;100.00;63355.56;4993141;28;20097;-81
2022/01/23 05:41:28;;;;;;;38.17;17.42;;;;;;;-141.50;100.00;63355.56;4993511;28;20077;-83
2022/01/23 05:43:55;;;;;;;36.85;16.33;;;;;;;-141.50;100.00;63355.56;4976568;28;20139;-81
2022/01/23 05:46:21;;;;;;;33.83;15.02;;;;;;;-141.50;100.00;63355.56;4994225;28;20055;-81
2022/01/23 05:48:48;;;;;;;35.08;15.23;;;;;;;-141.50;100.00;63355.56;4991410;28;20054;-81
2022/01/23 05:51:15;;;;;;;28.88;13.73;;;;;;;-141.50;100.00;63355.56;4994093;28;20475;-80
2022/01/23 05:53:42;;;;;;;30.70;13.57;;;;;;;-141.50;100.00;63355.56;4995398;28;20490;-80
2022/01/23 05:56:09;;;;;;;28.33;13.80;;;;;;;-141.50;100.00;63355.56;4994541;28;20108;-80
2022/01/23 05:58:35;;;;;;;26.70;12.75;;;;;;;-141.50;100.00;63355.56;4992344;28;20402;-81
2022/01/23 06:01:02;;;;;;;29.02;13.15;;;;;;;-141.50;100.00;63355.56;4992456;28;20050;-81
2022/01/23 06:03:29;;;;;;;26.73;12.77;;;;;;;-141.50;100.00;63355.56;4993913;28;20137;-81
2022/01/23 06:05:56;;;;;;;29.83;13.15;;;;;;;-141.50;100.00;63355.56;4993245;28;20088;-81
2022/01/23 06:08:24;;;;;;;30.40;14.20;;;;;;;-141.50;100.00;63355.56;4994940;28;20054;-81
2022/01/23 06:10:58;;;;;;;33.58;14.80;;;;;;;-141.50;100.00;63355.56;4996478;28;20061;-83
2022/01/23 06:13:28;;;;;;;35.97;15.52;;;;;;;-141.50;100.00;63355.56;4995817;28;20050;-81
2022/01/23 06:15:55;;;;;;;33.60;14.98;;;;;;;-141.50;100.00;63355.56;4997175;28;20047;-82
2022/01/23 06:18:22;;;;;;;34.35;14.98;;;;;;;-141.50;100.00;63355.56;4997207;28;20054;-81
2022/01/23 06:20:48;;;;;;;33.78;14.13;;;;;;;-141.50;100.00;63355.56;4996009;28;20121;-82
2022/01/23 06:23:15;;;;;;;27.95;12.27;;;;;;;-141.50;100.00;63355.56;4995865;28;20133;-83
2022/01/23 06:25:43;;;;;;;25.58;12.35;;;;;;;-141.50;100.00;63355.56;4997332;28;20050;-81
2022/01/23 06:28:12;;;;;;;28.90;13.18;;;;;;;-141.50;100.00;63355.56;4996347;28;20105;-82
2022/01/23 06:30:38;;;;;;;29.23;13.35;;;;;;;-141.50;100.00;63355.56;4995824;28;20046;-82
2022/01/23 06:33:06;;;;;;;27.35;12.75;;;;;;;-141.50;100.00;63355.56;4997725;28;20097;-82
2022/01/23 06:35:33;;;;;;;27.00;13.63;;;;;;;-141.50;100.00;63355.56;4997987;28;20302;-82
2022/01/23 06:37:59;;;;;;;28.33;13.05;;;;;;;-141.50;100.00;63355.56;4995587;28;20078;-82
2022/01/23 06:40:26;;;;;;;27.60;12.93;;;;;;;-141.50;100.00;63355.56;4997198;28;20084;-81
2022/01/23 06:42:53;;;;;;;24.40;12.65;;;;;;;-141.50;100.00;63355.56;5010019;28;20069;-81
2022/01/23 06:45:20;;;;;;;26.23;12.32;;;;;;;-141.50;100.00;63355.56;4997834;28;20104;-82
2022/01/23 06:47:46;;;;;;;26.50;12.55;;;;;;;-141.50;100.00;63355.56;4997930;28;20054;-82
2022/01/23 06:50:13;;;;;;;21.92;10.60;;;;;;;-141.50;100.00;63355.56;4980499;28;20062;-81
2022/01/23 06:52:39;;;;;;;23.13;11.07;;;;;;;-141.50;100.00;63355.56;4998190;28;20074;-81
2022/01/23 06:55:09;;;;;;;23.20;11.55;;;;;;;-141.50;100.00;63355.56;5012307;28;20049;-81
2022/01/23 06:57:35;;;;;;;24.95;11.38;;;;;;;-141.50;100.00;63355.56;5014446;28;20056;-82
2022/01/23 07:00:03;;;;;;;24.48;12.18;;;;;;;-141.50;100.00;63355.56;5016394;28;20120;-81
2022/01/23 07:02:30;;;;;;;22.33;11.40;;;;;;;-141.50;100.00;63355.56;5018921;28;20103;-79
2022/01/23 07:04:57;;;;;;;23.52;11.85;;;;;;;-141.50;100.00;63355.56;5024721;28;20069;-81
2022/01/23 07:07:23;;;;;;;26.63;13.18;;;;;;;-141.50;100.00;63355.56;5011565;28;20060;-81
2022/01/23 07:09:50;;;;;;;28.15;13.18;;;;;;;-141.50;100.00;63355.56;5012980;28;20509;-80
2022/01/23 07:12:16;;;;;;;26.08;13.27;;;;;;;-141.50;100.00;63355.56;5011906;28;20100;-81
2022/01/23 07:14:43;;;;;;;30.30;14.68;;;;;;;-141.50;100.00;63355.56;4994711;28;20157;-81
2022/01/23 07:17:09;;;;;;;32.55;14.98;;;;;;;-141.50;100.00;63355.56;5011291;28;20058;-83
2022/01/23 07:19:36;;;;;;;33.63;17.55;;;;;;;-141.50;100.00;63355.56;4993736;28;20045;-83
2022/01/23 07:22:05;;;;;;;38.30;16.95;;;;;;;-141.50;100.00;63355.56;4993838;28;20057;-82
2022/01/23 07:24:32;;;;;;;34.95;16.55;;;;;;;-141.50;100.00;63355.56;5010805;28;20054;-81
2022/01/23 07:27:01;;;;;;;30.95;14.95;;;;;;;-141.50;100.00;63355.56;5011943;28;20101;-81
2022/01/23 07:29:27;;;;;;;30.20;15.85;;;;;;;-141.50;100.00;63355.56;5009940;28;20065;-82
2022/01/23 07:32:06;;;;;;;37.85;17.77;;;;;;;-141.50;100.00;63355.56;5009375;28;20108;-81
2022/01/23 07:34:33;;;;;;;36.03;18.05;;;;;;;-141.50;100.00;63355.56;5011477;28;20058;-80
2022/01/23 07:37:00;;;;;;;37.20;17.95;;;;;;;-141.50;100.00;63355.56;4991495;28;20101;-81
2022/01/23 07:39:26;;;;;;;38.20;19.00;;;;;;;-141.50;100.00;63355.56;5010034;28;20100;-82
2022/01/23 07:41:53;;;;;;;39.20;18.42;;;;;;;-141.50;100.00;63355.56;5008304;28;20082;-84
2022/01/23 07:44:42;;;;;;;39.53;18.58;;;;;;;-141.50;100.00;63355.56;5008931;28;20078;-84
2022/01/23 07:47:22;;;;;;;39.97;18.83;;;;;;;-141.50;100.00;63355.56;4998699;28;20061;-82
2022/01/23 07:50:02;;;;;;;42.78;18.10;;;;;;;-141.50;100.00;63355.56;5001094;28;20050;-82
2022/01/23 07:52:37;;;;;;;38.08;18.55;;;;;;;-141.50;100.00;63355.56;4993461;28;20089;-81
2022/01/23 07:55:10;;;;;;;38.40;17.58;;;;;;;-141.50;100.00;63355.56;5012812;28;20054;-80
2022/01/23 07:57:37;;;;;;;35.88;16.88;;;;;;;-141.50;100.00;63355.56;5001837;28;20088;-80
2022/01/23 08:00:07;;;;;;;40.83;18.25;;;;;;;-141.50;100.00;63355.56;5020237;28;20166;-80
2022/01/23 08:02:33;;;;;;;37.42;17.25;;;;;;;-141.50;100.00;63355.56;4996905;28;20050;-81
2022/01/23 08:05:00;;;;;;;34.70;16.30;;;;;;;-141.50;100.00;63355.56;5012501;28;20058;-82
2022/01/23 08:09:56;;;;;;;39.35;16.92;;;;;;;-141.50;100.00;63355.56;5011677;28;20085;-83
2022/01/23 08:12:24;;;;;;;36.42;17.27;;;;;;;-141.50;100.00;63355.56;5009593;28;20499;-83
2022/01/23 08:14:51;;;;;;;35.50;16.58;;;;;;;-141.50;100.00;63355.56;5009138;28;20084;-81
2022/01/23 08:17:19;;;;;;;33.38;16.08;;;;;;;-141.50;100.00;63355.56;4976256;28;20049;-83
2022/01/23 08:19:46;;;;;;;35.03;16.58;;;;;;;-141.50;100.00;63355.56;5013206;28;20128;-81
2022/01/23 08:22:12;;;;;;;29.70;15.27;;;;;;;-141.50;100.00;63355.56;5011669;28;20065;-81
2022/01/23 08:24:39;;;;;;;35.80;17.42;;;;;;;-141.50;100.00;63355.56;5010206;28;20408;-82
2022/01/23 08:27:05;;;;;;;35.53;17.48;;;;;;;-141.50;100.00;63355.56;5008892;28;20069;-80
2022/01/23 08:29:32;;;;;;;31.55;16.15;;;;;;;-141.50;100.00;63355.56;4990760;28;20074;-80
2022/01/23 08:31:58;;;;;;;25.38;13.70;;;;;;;-141.50;100.00;63355.56;5009367;28;20116;-82
2022/01/23 08:34:25;;;;;;;26.85;14.00;;;;;;;-141.50;100.00;63355.56;5010443;28;20621;-81
2022/01/23 08:36:55;;;;;;;27.48;13.77;;;;;;;-141.50;100.00;63355.56;5011370;28;20089;-81
2022/01/23 08:39:24;;;;;;;27.27;13.77;;;;;;;-141.50;100.00;63355.56;5010870;28;20057;-80
2022/01/23 08:41:52;;;;;;;26.38;13.60;;;;;;;-141.50;100.00;63355.56;5010389;28;20529;-82
2022/01/23 08:44:27;;;;;;;25.10;13.23;;;;;;;-141.50;100.00;63355.56;4992435;28;20049;-81
2022/01/23 08:46:54;;;;;;;26.35;13.02;;;;;;;-141.50;100.00;63355.56;5014807;28;20058;-79
2022/01/23 08:49:22;;;;;;;22.55;12.40;;;;;;;-141.50;100.00;63355.56;5018876;28;20054;-80
2022/01/23 08:51:51;;;;;;;25.42;12.40;;;;;;;-141.50;100.00;63355.56;5016882;28;20053;-80
2022/01/23 08:54:17;;;;;;;23.33;11.15;;;;;;;-141.50;100.00;63355.56;4995696;28;20790;-81
2022/01/23 08:56:44;;;;;;;22.63;11.15;;;;;;;-141.50;100.00;63355.56;5013436;28;20501;-81
2022/01/23 08:59:11;;;;;;;18.50;10.38;;;;;;;-141.50;100.00;63355.56;4997846;28;20050;-81
2022/01/23 09:01:38;;;;;;;17.88;9.05;;;;;;;-141.50;100.00;63355.56;5013176;28;20410;-81
2022/01/23 09:04:07;;;;;;;16.15;8.27;;;;;;;-141.50;100.00;63355.56;4996790;28;20077;-81
2022/01/23 09:06:34;;;;;;;16.73;8.50;;;;;;;-141.50;100.00;63355.56;5013455;28;20391;-81
2022/01/23 09:09:02;;;;;;;14.07;7.40;;;;;;;-141.50;100.00;63355.56;5011444;28;20073;-80
2022/01/23 09:11:40;;;;;;;14.15;7.63;;;;;;;-141.50;100.00;63355.56;5011704;28;20112;-79
2022/01/23 09:14:10;;;;;;;16.45;7.95;;;;;;;-141.50;100.00;63355.56;4994190;28;20127;-81
2022/01/23 09:16:38;;;;;;;14.77;8.95;;;;;;;-141.50;100.00;63355.56;5011255;28;20049;-80
2022/01/23 09:19:06;;;;;;;16.33;9.20;;;;;;;-141.50;100.00;63355.56;4996540;28;20085;-81
2022/01/23 09:21:33;;;;;;;15.95;9.68;;;;;;;-141.50;100.00;63355.56;4995782;28;20049;-81
2022/01/23 09:24:00;;;;;;;20.60;12.10;;;;;;;-141.50;100.00;63355.56;5013593;28;20057;-80
2022/01/23 09:26:27;;;;;;;22.55;12.27;;;;;;;-141.50;100.00;63355.56;5012619;28;20054;-81
2022/01/23 09:28:59;;;;;;;24.75;12.82;;;;;;;-141.50;100.00;63355.56;4993068;28;20108;-81
2022/01/23 09:31:33;;;;;;;24.15;14.35;;;;;;;-141.50;100.00;63355.56;5011847;28;20108;-81
2022/01/23 09:34:00;;;;;;;18.40;9.67;;;;;;;-141.50;100.00;63355.56;4994552;28;20049;-81
2022/01/23 09:36:28;;;;;;;22.42;12.43;;;;;;;-141.50;100.00;63355.56;4994453;28;20053;-80
2022/01/23 09:38:54;;;;;;;22.20;13.07;;;;;;;-141.50;100.00;63355.56;5009854;28;20054;-80
2022/01/23 09:41:27;;;;;;;21.58;11.77;;;;;;;-141.50;100.00;63355.56;5011613;28;20174;-82
2022/01/23 09:43:54;;;;;;;19.58;11.45;;;;;;;-141.50;100.00;63355.56;5013250;28;20046;-80
2022/01/23 09:46:24;;;;;;;23.00;11.45;;;;;;;-141.50;100.00;63355.56;5012727;28;20088;-80
2022/01/23 09:48:52;;;;;;;18.35;10.73;;;;;;;-141.50;100.00;63355.56;5014359;28;20065;-80
2022/01/23 09:51:23;;;;;;;18.10;10.77;;;;;;;-141.50;100.00;63355.56;5016952;28;20418;-80
2022/01/23 09:53:54;;;;;;;22.27;11.98;;;;;;;-141.50;100.00;63355.56;5006051;28;20524;-80
2022/01/23 09:56:30;;;;;;;16.95;10.55;;;;;;;-141.50;100.00;63355.56;5002431;28;20279;-81
2022/01/23 09:58:57;;;;;;;21.00;10.93;;;;;;;-141.50;100.00;63355.56;5011827;28;20384;-80
2022/01/23 10:01:24;;;;;;;18.35;10.60;;;;;;;-141.50;100.00;63355.56;5015431;28;20077;-80
2022/01/23 10:03:51;;;;;;;20.95;10.68;;;;;;;-141.50;100.00;63355.56;5015086;28;20549;-80
2022/01/23 10:06:18;;;;;;;16.25;10.50;;;;;;;-141.50;100.00;63355.56;4999288;28;20057;-79
2022/01/23 10:08:45;;;;;;;16.92;9.63;;;;;;;-141.50;100.00;63355.56;5015557;28;20132;-80
2022/01/23 10:11:13;;;;;;;16.00;9.00;;;;;;;-141.50;100.00;63355.56;5000245;28;20050;-81
2022/01/23 10:13:41;;;;;;;18.20;9.07;;;;;;;-141.50;100.00;63355.56;5015236;28;20120;-79
2022/01/23 10:16:08;;;;;;;17.63;8.77;;;;;;;-141.50;100.00;63355.56;4998125;28;20111;-79
2022/01/23 10:18:34;;;;;;;12.82;8.00;;;;;;;-141.50;100.00;63355.56;4998684;28;20061;-79
2022/01/23 10:21:01;;;;;;;12.23;7.43;;;;;;;-141.50;100.00;63355.56;5016600;28;20046;-82
2022/01/23 10:23:28;;;;;;;12.70;7.40;;;;;;;-141.50;100.00;63355.56;4998808;28;20049;-81
2022/01/23 10:25:55;;;;;;;13.00;6.95;;;;;;;-141.50;100.00;63355.56;4999244;28;20115;-80
2022/01/23 10:28:27;;;;;;;11.52;6.35;;;;;;;-141.50;100.00;63355.56;5013735;28;20049;-81
2022/01/23 10:31:00;;;;;;;12.50;7.00;;;;;;;-141.50;100.00;63355.56;4997804;28;20104;-81
2022/01/23 10:33:28;;;;;;;12.60;7.15;;;;;;;-141.50;100.00;63355.56;5015443;28;20138;-81
2022/01/23 10:36:09;;;;;;;14.30;7.65;;;;;;;-141.50;100.00;63355.56;5015540;28;20104;-80
2022/01/23 10:38:35;;;;;;;14.05;7.38;;;;;;;-141.50;100.00;63355.56;5011620;28;20104;-82
2022/01/23 10:49:52;;;;;;;13.55;7.43;;;;;;;-141.50;100.00;63355.56;5015756;28;20377;-80
2022/01/23 10:52:29;;;;;;;14.75;7.85;;;;;;;-141.50;100.00;63355.56;4997712;28;20049;-81
2022/01/23 10:54:56;;;;;;;12.00;7.47;;;;;;;-141.50;100.00;63355.56;4998019;28;20081;-80
2022/01/23 10:57:23;;;;;;;11.18;7.35;;;;;;;-141.50;100.00;63355.56;5015348;28;20054;-80
2022/01/23 10:59:52;;;;;;;10.52;7.18;;;;;;;-141.50;100.00;63355.56;4997477;28;20081;-81
2022/01/23 11:02:23;;;;;;;11.15;7.03;;;;;;;-141.50;100.00;63355.56;5014437;28;20096;-80
2022/01/23 11:04:56;;;;;;;11.88;7.35;;;;;;;-141.50;100.00;63355.56;4999186;28;20096;-80
2022/01/23 11:07:25;;;;;;;10.55;6.80;;;;;;;-141.50;100.00;63355.56;4998613;28;20112;-80
2022/01/23 11:10:11;;;;;;;13.27;6.95;;;;;;;-141.50;100.00;63355.56;5015222;28;20060;-80
2022/01/23 11:18:01;;;;;;;10.50;5.90;;;;;;;-141.50;100.00;63355.56;5013508;28;20054;-79
2022/01/23 11:20:34;;;;;;;10.40;5.80;;;;;;;-141.50;100.00;63355.56;4998045;28;20100;-80
2022/01/23 11:23:22;;;;;;;9.30;5.85;;;;;;;-141.50;100.00;63355.56;5015223;28;20104;-80
2022/01/23 11:25:51;;;;;;;11.52;6.50;;;;;;;-141.50;100.00;63355.56;5015208;28;20665;-80
2022/01/23 11:28:40;;;;;;;10.07;6.68;;;;;;;-141.50;100.00;63355.56;5009753;28;20050;-80
2022/01/23 11:31:10;;;;;;;12.25;6.97;;;;;;;-141.50;100.00;63355.56;5006541;28;20046;-81
2022/01/23 11:33:37;;;;;;;12.98;6.78;;;;;;;-141.50;100.00;63355.56;5012553;28;20045;-81
2022/01/23 11:36:05;;;;;;;13.15;7.03;;;;;;;-141.50;100.00;63355.56;5015576;28;20050;-80
2022/01/23 11:38:32;;;;;;;15.18;7.40;;;;;;;-141.50;100.00;63355.56;5015869;28;20085;-80
2022/01/23 11:54:51;;;;;;;13.02;7.75;;;;;;;-141.50;100.00;63355.56;5015162;28;20050;-80
2022/01/23 11:57:33;;;;;;;14.43;7.88;;;;;;;-141.50;100.00;63355.56;4997485;28;20053;-79
2022/01/23 12:00:08;;;;;;;16.15;7.63;;;;;;;-141.50;100.00;63355.56;5013620;28;20045;-80
2022/01/23 12:02:40;;;;;;;13.05;6.50;;;;;;;-141.50;100.00;63355.56;5012045;28;20100;-79
2022/01/23 12:05:09;;;;;;;10.65;6.55;;;;;;;-141.50;100.00;63355.56;5013602;28;20068;-80
2022/01/23 12:07:37;;;;;;;9.70;6.40;;;;;;;-141.50;100.00;63355.56;5013028;28;20384;-80
2022/01/23 12:10:29;;;;;;;9.60;5.85;;;;;;;-141.50;100.00;63355.56;4995702;28;20076;-79
2022/01/23 12:13:34;;;;;;;9.32;5.53;;;;;;;-141.50;100.00;63355.56;5012040;28;20495;-78
2022/01/23 12:18:49;;;;;;;14.25;6.68;;;;;;;-141.50;100.00;63355.56;5021259;28;20266;-79
2022/01/23 12:21:29;;;;;;;10.65;6.40;;;;;;;-141.50;100.00;63355.56;5024131;28;20069;-80
2022/01/23 12:24:01;;;;;;;11.15;6.57;;;;;;;-141.50;100.00;63355.56;5026984;28;20310;-80
2022/01/23 12:26:27;;;;;;;11.35;6.97;;;;;;;-141.50;100.00;63355.56;5020474;28;20076;-79
2022/01/23 12:28:54;;;;;;;11.48;7.20;;;;;;;-141.50;100.00;63355.56;5015618;28;20339;-81
2022/01/23 12:31:27;;;;;;;10.00;6.07;;;;;;;-141.50;100.00;63355.56;5000037;28;20050;-80
2022/01/23 12:33:57;;;;;;;10.70;6.53;;;;;;;-141.50;100.00;63355.56;5012797;28;20049;-78
2022/01/23 12:36:26;;;;;;;11.00;6.38;;;;;;;-141.50;100.00;63355.56;4997456;28;20081;-81
2022/01/23 12:39:18;;;;;;;8.77;5.95;;;;;;;-141.50;100.00;63355.56;5012814;28;20053;-80
2022/01/23 12:41:51;;;;;;;9.68;5.43;;;;;;;-141.50;100.00;63355.56;4988534;28;20065;-80
2022/01/23 12:44:23;;;;;;;7.32;5.05;;;;;;;-141.50;100.00;63355.56;5013366;28;20463;-82
2022/01/23 12:46:53;;;;;;;7.32;4.93;;;;;;;-141.50;100.00;63355.56;5014091;28;20073;-81
2022/01/23 12:49:23;;;;;;;9.65;5.68;;;;;;;-141.50;100.00;63355.56;5014368;28;20061;-80
2022/01/23 12:51:53;;;;;;;9.68;5.30;;;;;;;-141.50;100.00;63355.56;5018144;28;20073;-78
2022/01/23 12:54:30;;;;;;;11.50;6.07;;;;;;;-141.50;100.00;63355.56;5026993;28;20041;-80
2022/01/23 12:57:06;;;;;;;11.13;6.10;;;;;;;-141.50;100.00;63355.56;5026029;28;20050;-80
2022/01/23 12:59:35;;;;;;;9.98;5.93;;;;;;;-141.50;100.00;63355.56;5017925;28;20073;-81
2022/01/23 13:02:08;;;;;;;10.30;6.43;;;;;;;-141.50;100.00;63355.56;5013105;28;20266;-80
2022/01/23 13:04:43;;;;;;;9.40;5.93;;;;;;;-141.50;100.00;63355.56;5013341;28;20128;-81
2022/01/23 13:07:19;;;;;;;11.35;6.50;;;;;;;-141.50;100.00;63355.56;5014551;28;20503;-81
2022/01/23 13:09:53;;;;;;;;;;;;;;;;;;;;;
2022/01/23 13:17:56;;;;;;;;;;;;;;;;;;;;;
2022/01/23 13:31:50;;;;;;;10.82;6.72;;;;;;;-141.50;100.00;63355.56;5015061;28;20054;-78
2022/01/23 13:34:41;;;;;;;10.18;6.32;;;;;;;-141.50;100.00;63355.56;5015395;28;20053;-81
2022/01/23 13:37:16;;;;;;;9.40;6.30;;;;;;;-141.50;100.00;63355.56;5000299;28;20057;-81
2022/01/23 13:39:49;;;;;;;13.52;6.57;;;;;;;-141.50;100.00;63355.56;5017282;28;20085;-80
2022/01/23 13:48:20;;;;;;;9.90;6.50;;;;;;;-141.50;100.00;63355.56;5012713;28;20061;-81
2022/01/23 13:54:17;;;;;;;12.63;8.25;;;;;;;-141.50;100.00;63355.56;4970473;28;20408;-80
2022/01/23 14:02:59;;;;;;;15.02;8.85;;;;;;;-141.50;100.00;63355.56;5012898;28;20077;-81
2022/01/23 14:05:31;;;;;;;15.57;8.32;;;;;;;-141.50;100.00;63355.56;4994576;28;20088;-80
2022/01/23 14:08:02;;;;;;;12.98;8.10;;;;;;;-141.50;100.00;63355.56;5010379;28;20507;-81
2022/01/23 14:10:32;;;;;;;15.95;8.18;;;;;;;-141.50;100.00;63355.56;5011176;28;20080;-80
2022/01/23 14:13:05;;;;;;;18.88;10.70;;;;;;;-141.50;100.00;63355.56;5011465;28;20045;-81
2022/01/23 14:15:31;;;;;;;16.33;9.68;;;;;;;-141.50;100.00;63355.56;5013330;28;20116;-81
2022/01/23 14:18:02;;;;;;;14.57;10.00;;;;;;;-141.50;100.00;63355.56;5010968;28;20052;-80
2022/01/23 14:20:32;;;;;;;20.10;10.20;;;;;;;-141.50;100.00;63355.56;5012144;28;20050;-81
2022/01/23 14:23:10;;;;;;;17.90;8.05;;;;;;;-141.50;100.00;63355.56;5010567;28;20049;-79
2022/01/23 14:25:53;;;;;;;13.20;8.52;;;;;;;-141.50;100.00;63355.56;4994810;28;20115;-81
2022/01/23 14:28:24;;;;;;;15.88;7.50;;;;;;;-141.50;100.00;63355.56;4995060;28;20081;-80
2022/01/23 14:30:58;;;;;;;13.32;7.80;;;;;;;-141.50;100.00;63355.56;5015407;28;20054;-80
2022/01/23 14:33:31;;;;;;;14.27;7.50;;;;;;;-141.50;100.00;63355.56;5013290;28;20077;-80
2022/01/23 14:36:23;;;;;;;12.13;7.45;;;;;;;-141.50;100.00;63355.56;5014619;28;20351;-80
2022/01/23 14:39:02;;;;;;;9.55;5.35;;;;;;;-141.50;100.00;63355.56;5015070;28;20169;-79
2022/01/23 14:41:33;;;;;;;12.88;6.90;;;;;;;-141.50;100.00;63355.56;5013971;28;20046;-81
2022/01/23 14:44:02;;;;;;;12.13;6.50;;;;;;;-141.50;100.00;63355.56;5013063;28;20200;-79
2022/01/23 14:46:28;;;;;;;13.70;8.48;;;;;;;-141.50;100.00;63355.56;5015977;28;20462;-79
2022/01/23 14:49:00;;;;;;;14.65;8.43;;;;;;;-141.50;100.00;63355.56;5019483;28;20057;-81
2022/01/23 14:51:29;;;;;;;14.70;7.90;;;;;;;-141.50;100.00;63355.56;5019667;28;20158;-80